地図

経路データ

SID SEASON NUMBER BASIN SUBBASIN NAME ISO_TIME NATURE LAT LON WMO_WIND WMO_PRES WMO_AGENCY TRACK_TYPE DIST2LAND LANDFALL IFLAG USA_AGENCY USA_ATCF_ID USA_LAT USA_LON USA_RECORD USA_STATUS USA_WIND USA_PRES USA_SSHS USA_R34_NE USA_R34_SE USA_R34_SW USA_R34_NW USA_R50_NE USA_R50_SE USA_R50_SW USA_R50_NW USA_R64_NE USA_R64_SE USA_R64_SW USA_R64_NW USA_POCI USA_ROCI USA_RMW USA_EYE TOKYO_LAT TOKYO_LON TOKYO_GRADE TOKYO_WIND TOKYO_PRES TOKYO_R50_DIR TOKYO_R50_LONG TOKYO_R50_SHORT TOKYO_R30_DIR TOKYO_R30_LONG TOKYO_R30_SHORT TOKYO_LAND CMA_LAT CMA_LON CMA_CAT CMA_WIND CMA_PRES HKO_LAT HKO_LON HKO_CAT HKO_WIND HKO_PRES NEWDELHI_LAT NEWDELHI_LON NEWDELHI_GRADE NEWDELHI_WIND NEWDELHI_PRES NEWDELHI_CI NEWDELHI_DP NEWDELHI_POCI REUNION_LAT REUNION_LON REUNION_TYPE REUNION_WIND REUNION_PRES REUNION_TNUM REUNION_CI REUNION_RMW REUNION_R34_NE REUNION_R34_SE REUNION_R34_SW REUNION_R34_NW REUNION_R50_NE REUNION_R50_SE REUNION_R50_SW REUNION_R50_NW REUNION_R64_NE REUNION_R64_SE REUNION_R64_SW REUNION_R64_NW BOM_LAT BOM_LON BOM_TYPE BOM_WIND BOM_PRES BOM_TNUM BOM_CI BOM_RMW BOM_R34_NE BOM_R34_SE BOM_R34_SW BOM_R34_NW BOM_R50_NE BOM_R50_SE BOM_R50_SW BOM_R50_NW BOM_R64_NE BOM_R64_SE BOM_R64_SW BOM_R64_NW BOM_ROCI BOM_POCI BOM_EYE BOM_POS_METHOD BOM_PRES_METHOD NADI_LAT NADI_LON NADI_CAT NADI_WIND NADI_PRES WELLINGTON_LAT WELLINGTON_LON WELLINGTON_WIND WELLINGTON_PRES DS824_LAT DS824_LON DS824_STAGE DS824_WIND DS824_PRES TD9636_LAT TD9636_LON TD9636_STAGE TD9636_WIND TD9636_PRES TD9635_LAT TD9635_LON TD9635_WIND TD9635_PRES TD9635_ROCI NEUMANN_LAT NEUMANN_LON NEUMANN_CLASS NEUMANN_WIND NEUMANN_PRES MLC_LAT MLC_LON MLC_CLASS MLC_WIND MLC_PRES USA_GUST BOM_GUST BOM_GUST_PER REUNION_GUST REUNION_GUST_PER USA_SEAHGT USA_SEARAD_NE USA_SEARAD_SE USA_SEARAD_SW USA_SEARAD_NW STORM_SPEED STORM_DIR
1935029N09146 1935 5 WP MM NOT_NAMED 1935-01-29 10:00:00 NR 8.70000 146.000 main 1212 1212 __________O___ -1 8.70000 146.000 7 6 294
1935029N09146 1935 5 WP MM NOT_NAMED 1935-01-29 12:00:00 NR 8.78673 145.810 main 1224 1224 __________P___ -1 8.78673 145.810 7 6 296
1935029N09146 1935 5 WP MM NOT_NAMED 1935-01-29 15:00:00 NR 8.93423 145.508 main 1238 1238 __________P___ -1 8.93423 145.508 7 7 298
1935029N09146 1935 5 WP MM NOT_NAMED 1935-01-29 18:00:00 NR 9.12672 145.165 main 1264 1265 __________P___ -1 9.12672 145.165 7 9 302
1935029N09146 1935 5 WP MM NOT_NAMED 1935-01-29 21:00:00 NR 9.39119 144.756 main 1303 1305 __________P___ -1 9.39119 144.756 7 10 304
1935029N09146 1935 5 WP MM NOT_NAMED 1935-01-29 22:00:00 NR 9.50000 144.600 main 1318 1318 __________O___ -1 9.50000 144.600 7 12 306
1935029N09146 1935 5 WP MM NOT_NAMED 1935-01-30 00:00:00 NR 9.75257 144.258 main 1357 1359 __________P___ -1 9.75257 144.258 7 14 309
1935029N09146 1935 5 WP MM NOT_NAMED 1935-01-30 03:00:00 NR 10.2128 143.695 main 1415 1415 __________P___ -1 10.2128 143.695 7 15 312
1935029N09146 1935 5 WP MM NOT_NAMED 1935-01-30 06:00:00 NR 10.7591 143.114 main 1491 1491 __________P___ -1 10.7591 143.114 7 16 316
1935029N09146 1935 5 WP MM NOT_NAMED 1935-01-30 09:00:00 NR 11.3791 142.566 main 1535 1532 __________P___ -1 11.3791 142.566 7 16 320
1935029N09146 1935 5 WP MM NOT_NAMED 1935-01-30 10:00:00 NR 11.6000 142.400 main 1550 1550 __________O___ -1 11.6000 142.400 7 17 324
1935029N09146 1935 5 WP MM NOT_NAMED 1935-01-30 12:00:00 NR 12.0773 142.049 main 1591 1591 __________P___ -1 12.0773 142.049 7 18 327
1935029N09146 1935 5 WP MM NOT_NAMED 1935-01-30 15:00:00 NR 12.8507 141.571 main 1658 1654 __________P___ -1 12.8507 141.571 7 18 332
1935029N09146 1935 5 WP MM NOT_NAMED 1935-01-30 18:00:00 NR 13.6377 141.205 main 1698 1688 __________P___ -1 13.6377 141.205 7 16 340
1935029N09146 1935 5 WP MM NOT_NAMED 1935-01-30 21:00:00 NR 14.3757 141.014 main 1692 1692 __________P___ -1 14.3757 141.014 7 15 348
1935029N09146 1935 5 WP MM NOT_NAMED 1935-01-30 22:00:00 NR 14.6000 141.000 main 1697 1697 __________O___ -1 14.6000 141.000 7 13 3
1935029N09146 1935 5 WP MM NOT_NAMED 1935-01-31 00:00:00 NR 15.0054 141.056 main 1715 1715 __________P___ -1 15.0054 141.056 7 12 18
1935029N09146 1935 5 WP MM NOT_NAMED 1935-01-31 03:00:00 NR 15.5450 141.318 main 1745 1747 __________P___ -1 15.5450 141.318 7 12 33
1935029N09146 1935 5 WP MM NOT_NAMED 1935-01-31 06:00:00 NR 16.0051 141.732 main 1798 1808 __________P___ -1 16.0051 141.732 7 12 46
1935029N09146 1935 5 WP MM NOT_NAMED 1935-01-31 09:00:00 NR 16.3886 142.228 main 1859 1870 __________P___ -1 16.3886 142.228 7 12 52
1935029N09146 1935 5 WP MM NOT_NAMED 1935-01-31 10:00:00 NR 16.5000 142.400 main 1883 1883 __________O___ -1 16.5000 142.400 7 12 58
1935029N09146 1935 5 WP MM NOT_NAMED 1935-01-31 12:00:00 NR 16.6995 142.741 main 1919 1929 __________P___ -1 16.6995 142.741 7 11 61
1935029N09146 1935 5 WP MM NOT_NAMED 1935-01-31 15:00:00 NR 16.9501 143.245 main 1975 1974 __________P___ -1 16.9501 143.245 7 11 64
1935029N09146 1935 5 WP MM NOT_NAMED 1935-01-31 18:00:00 NR 17.1581 143.742 main 1974 1976 __________P___ -1 17.1581 143.742 7 10 68
1935029N09146 1935 5 WP MM NOT_NAMED 1935-01-31 21:00:00 NR 17.3414 144.236 main 1984 1978 __________P___ -1 17.3414 144.236 7 10 69
1935029N09146 1935 5 WP MM NOT_NAMED 1935-01-31 22:00:00 NR 17.4000 144.400 main 1982 __________O___ -1 17.4000 144.400 7 10 70

デジタル台風データ・検索

IBTrACS Databaseについて

本データベースは、米国NOAAが公開する1842年以降の世界の熱帯低気圧のベストトラックデータアーカイブInternational Best Track Archive for Climate Stewardship (IBTrACS)を、ウェブで閲覧しやすい形式に変換したものです。

最終更新日:2021-11-26